<?xml version="1.0" encoding="UTF-8" standalone="no" ?>
<gpx xmlns="http://www.topografix.com/GPX/1/1" xmlns:xsi="http://www.w3.org/2001/XMLSchema-instance" xsi:schemaLocation="http://www.topografix.com/GPX/1/1 http://www.topografix.com/GPX/1/1/gpx.xsd" version="1.1" creator="VisuGPX - https://www.visugpx.com">
  <metadata>
    <name>Footing Rhône_2</name>
    <desc><![CDATA[Reprise activité.]]></desc>
  </metadata>
  <trk>
    <name><![CDATA[Sequence 1]]></name>
    <trkseg>
      <trkpt lat="45.75397" lon="4.82909">
        <ele>203</ele>
        <time>2016-09-15T05:07:19Z</time>
      </trkpt>
      <trkpt lat="45.75364" lon="4.82933">
        <ele>128</ele>
        <time>2016-09-15T05:07:26Z</time>
      </trkpt>
      <trkpt lat="45.75424" lon="4.82979">
        <ele>154</ele>
        <time>2016-09-15T05:07:50Z</time>
      </trkpt>
      <trkpt lat="45.75459" lon="4.83017">
        <ele>176</ele>
        <time>2016-09-15T05:08:16Z</time>
      </trkpt>
      <trkpt lat="45.75458" lon="4.83019">
        <ele>181</ele>
        <time>2016-09-15T05:08:17Z</time>
      </trkpt>
      <trkpt lat="45.75452" lon="4.83028">
        <ele>194</ele>
        <time>2016-09-15T05:08:24Z</time>
      </trkpt>
      <trkpt lat="45.75448" lon="4.83061">
        <ele>179</ele>
        <time>2016-09-15T05:08:32Z</time>
      </trkpt>
      <trkpt lat="45.75447" lon="4.83073">
        <ele>169</ele>
        <time>2016-09-15T05:08:36Z</time>
      </trkpt>
      <trkpt lat="45.75435" lon="4.83094">
        <ele>173</ele>
        <time>2016-09-15T05:08:43Z</time>
      </trkpt>
      <trkpt lat="45.75428" lon="4.83106">
        <ele>175</ele>
        <time>2016-09-15T05:08:48Z</time>
      </trkpt>
      <trkpt lat="45.75416" lon="4.8312">
        <ele>176</ele>
        <time>2016-09-15T05:08:54Z</time>
      </trkpt>
      <trkpt lat="45.75398" lon="4.83131">
        <ele>181</ele>
        <time>2016-09-15T05:09:01Z</time>
      </trkpt>
      <trkpt lat="45.754" lon="4.8316">
        <ele>183</ele>
        <time>2016-09-15T05:09:10Z</time>
      </trkpt>
      <trkpt lat="45.75399" lon="4.83169">
        <ele>180</ele>
        <time>2016-09-15T05:09:14Z</time>
      </trkpt>
      <trkpt lat="45.75396" lon="4.83183">
        <ele>177</ele>
        <time>2016-09-15T05:09:18Z</time>
      </trkpt>
      <trkpt lat="45.75394" lon="4.83201">
        <ele>175</ele>
        <time>2016-09-15T05:09:24Z</time>
      </trkpt>
      <trkpt lat="45.75399" lon="4.83223">
        <ele>175</ele>
        <time>2016-09-15T05:09:31Z</time>
      </trkpt>
      <trkpt lat="45.75373" lon="4.83271">
        <ele>169</ele>
        <time>2016-09-15T05:09:42Z</time>
      </trkpt>
      <trkpt lat="45.75366" lon="4.83288">
        <ele>170</ele>
        <time>2016-09-15T05:09:46Z</time>
      </trkpt>
      <trkpt lat="45.75351" lon="4.83316">
        <ele>166</ele>
        <time>2016-09-15T05:09:54Z</time>
      </trkpt>
      <trkpt lat="45.75348" lon="4.83322">
        <ele>172</ele>
        <time>2016-09-15T05:09:56Z</time>
      </trkpt>
      <trkpt lat="45.75344" lon="4.8333">
        <ele>166</ele>
        <time>2016-09-15T05:10:01Z</time>
      </trkpt>
      <trkpt lat="45.75339" lon="4.83359">
        <ele>167</ele>
        <time>2016-09-15T05:10:12Z</time>
      </trkpt>
      <trkpt lat="45.7533" lon="4.83371">
        <ele>170</ele>
        <time>2016-09-15T05:10:18Z</time>
      </trkpt>
      <trkpt lat="45.75327" lon="4.83376">
        <ele>170</ele>
        <time>2016-09-15T05:10:20Z</time>
      </trkpt>
      <trkpt lat="45.75317" lon="4.83382">
        <ele>170</ele>
        <time>2016-09-15T05:10:25Z</time>
      </trkpt>
      <trkpt lat="45.75309" lon="4.83404">
        <ele>169</ele>
        <time>2016-09-15T05:10:33Z</time>
      </trkpt>
      <trkpt lat="45.75298" lon="4.83409">
        <ele>171</ele>
        <time>2016-09-15T05:10:38Z</time>
      </trkpt>
      <trkpt lat="45.75288" lon="4.83424">
        <ele>171</ele>
        <time>2016-09-15T05:10:44Z</time>
      </trkpt>
      <trkpt lat="45.75277" lon="4.83448">
        <ele>168</ele>
        <time>2016-09-15T05:10:54Z</time>
      </trkpt>
      <trkpt lat="45.75276" lon="4.8345">
        <ele>169</ele>
        <time>2016-09-15T05:10:55Z</time>
      </trkpt>
      <trkpt lat="45.7527" lon="4.8347">
        <ele>169</ele>
        <time>2016-09-15T05:11:02Z</time>
      </trkpt>
      <trkpt lat="45.75263" lon="4.83494">
        <ele>172</ele>
        <time>2016-09-15T05:11:10Z</time>
      </trkpt>
      <trkpt lat="45.7526" lon="4.83506">
        <ele>173</ele>
        <time>2016-09-15T05:11:14Z</time>
      </trkpt>
      <trkpt lat="45.75252" lon="4.83525">
        <ele>174</ele>
        <time>2016-09-15T05:11:21Z</time>
      </trkpt>
      <trkpt lat="45.75247" lon="4.83536">
        <ele>172</ele>
        <time>2016-09-15T05:11:25Z</time>
      </trkpt>
      <trkpt lat="45.75242" lon="4.83551">
        <ele>172</ele>
        <time>2016-09-15T05:11:31Z</time>
      </trkpt>
      <trkpt lat="45.75233" lon="4.83573">
        <ele>168</ele>
        <time>2016-09-15T05:11:39Z</time>
      </trkpt>
      <trkpt lat="45.75226" lon="4.83593">
        <ele>169</ele>
        <time>2016-09-15T05:11:45Z</time>
      </trkpt>
      <trkpt lat="45.7522" lon="4.83605">
        <ele>170</ele>
        <time>2016-09-15T05:11:49Z</time>
      </trkpt>
      <trkpt lat="45.75214" lon="4.83624">
        <ele>172</ele>
        <time>2016-09-15T05:11:55Z</time>
      </trkpt>
      <trkpt lat="45.75207" lon="4.83644">
        <ele>168</ele>
        <time>2016-09-15T05:12:01Z</time>
      </trkpt>
      <trkpt lat="45.75195" lon="4.83663">
        <ele>167</ele>
        <time>2016-09-15T05:12:10Z</time>
      </trkpt>
      <trkpt lat="45.75191" lon="4.83671">
        <ele>168</ele>
        <time>2016-09-15T05:12:13Z</time>
      </trkpt>
      <trkpt lat="45.75178" lon="4.83666">
        <ele>171</ele>
        <time>2016-09-15T05:12:19Z</time>
      </trkpt>
      <trkpt lat="45.75169" lon="4.83657">
        <ele>174</ele>
        <time>2016-09-15T05:12:25Z</time>
      </trkpt>
      <trkpt lat="45.75151" lon="4.8365">
        <ele>177</ele>
        <time>2016-09-15T05:12:33Z</time>
      </trkpt>
      <trkpt lat="45.75144" lon="4.83639">
        <ele>176</ele>
        <time>2016-09-15T05:12:38Z</time>
      </trkpt>
      <trkpt lat="45.75137" lon="4.83629">
        <ele>171</ele>
        <time>2016-09-15T05:12:43Z</time>
      </trkpt>
      <trkpt lat="45.75124" lon="4.83616">
        <ele>170</ele>
        <time>2016-09-15T05:12:49Z</time>
      </trkpt>
      <trkpt lat="45.75102" lon="4.836">
        <ele>174</ele>
        <time>2016-09-15T05:12:58Z</time>
      </trkpt>
      <trkpt lat="45.75095" lon="4.83595">
        <ele>172</ele>
        <time>2016-09-15T05:13:01Z</time>
      </trkpt>
      <trkpt lat="45.7508" lon="4.83585">
        <ele>170</ele>
        <time>2016-09-15T05:13:07Z</time>
      </trkpt>
      <trkpt lat="45.7506" lon="4.83559">
        <ele>162</ele>
        <time>2016-09-15T05:13:18Z</time>
      </trkpt>
      <trkpt lat="45.75057" lon="4.83554">
        <ele>162</ele>
        <time>2016-09-15T05:13:20Z</time>
      </trkpt>
      <trkpt lat="45.75051" lon="4.83542">
        <ele>164</ele>
        <time>2016-09-15T05:13:25Z</time>
      </trkpt>
      <trkpt lat="45.7504" lon="4.83518">
        <ele>170</ele>
        <time>2016-09-15T05:13:34Z</time>
      </trkpt>
      <trkpt lat="45.75034" lon="4.83508">
        <ele>171</ele>
        <time>2016-09-15T05:13:38Z</time>
      </trkpt>
      <trkpt lat="45.75024" lon="4.83495">
        <ele>173</ele>
        <time>2016-09-15T05:13:44Z</time>
      </trkpt>
      <trkpt lat="45.75012" lon="4.83486">
        <ele>174</ele>
        <time>2016-09-15T05:13:50Z</time>
      </trkpt>
      <trkpt lat="45.75002" lon="4.83478">
        <ele>176</ele>
        <time>2016-09-15T05:13:55Z</time>
      </trkpt>
      <trkpt lat="45.74987" lon="4.83469">
        <ele>172</ele>
        <time>2016-09-15T05:14:01Z</time>
      </trkpt>
      <trkpt lat="45.74964" lon="4.83453">
        <ele>167</ele>
        <time>2016-09-15T05:14:11Z</time>
      </trkpt>
      <trkpt lat="45.7495" lon="4.8344">
        <ele>164</ele>
        <time>2016-09-15T05:14:19Z</time>
      </trkpt>
      <trkpt lat="45.74942" lon="4.83433">
        <ele>164</ele>
        <time>2016-09-15T05:14:23Z</time>
      </trkpt>
      <trkpt lat="45.74937" lon="4.83425">
        <ele>160</ele>
        <time>2016-09-15T05:14:26Z</time>
      </trkpt>
      <trkpt lat="45.74914" lon="4.83408">
        <ele>170</ele>
        <time>2016-09-15T05:14:37Z</time>
      </trkpt>
      <trkpt lat="45.74912" lon="4.83406">
        <ele>169</ele>
        <time>2016-09-15T05:14:38Z</time>
      </trkpt>
      <trkpt lat="45.74902" lon="4.83395">
        <ele>172</ele>
        <time>2016-09-15T05:14:44Z</time>
      </trkpt>
      <trkpt lat="45.7488" lon="4.83382">
        <ele>181</ele>
        <time>2016-09-15T05:14:54Z</time>
      </trkpt>
      <trkpt lat="45.74868" lon="4.83378">
        <ele>186</ele>
        <time>2016-09-15T05:14:59Z</time>
      </trkpt>
      <trkpt lat="45.74857" lon="4.8337">
        <ele>184</ele>
        <time>2016-09-15T05:15:04Z</time>
      </trkpt>
      <trkpt lat="45.74843" lon="4.83356">
        <ele>182</ele>
        <time>2016-09-15T05:15:11Z</time>
      </trkpt>
      <trkpt lat="45.74825" lon="4.83341">
        <ele>174</ele>
        <time>2016-09-15T05:15:20Z</time>
      </trkpt>
      <trkpt lat="45.74819" lon="4.83336">
        <ele>176</ele>
        <time>2016-09-15T05:15:23Z</time>
      </trkpt>
      <trkpt lat="45.74811" lon="4.83329">
        <ele>178</ele>
        <time>2016-09-15T05:15:27Z</time>
      </trkpt>
      <trkpt lat="45.74794" lon="4.8332">
        <ele>174</ele>
        <time>2016-09-15T05:15:37Z</time>
      </trkpt>
      <trkpt lat="45.74778" lon="4.83309">
        <ele>171</ele>
        <time>2016-09-15T05:15:41Z</time>
      </trkpt>
      <trkpt lat="45.74761" lon="4.83292">
        <ele>171</ele>
        <time>2016-09-15T05:15:47Z</time>
      </trkpt>
      <trkpt lat="45.74742" lon="4.83275">
        <ele>176</ele>
        <time>2016-09-15T05:15:57Z</time>
      </trkpt>
      <trkpt lat="45.7474" lon="4.83273">
        <ele>177</ele>
        <time>2016-09-15T05:15:58Z</time>
      </trkpt>
      <trkpt lat="45.74728" lon="4.83263">
        <ele>177</ele>
        <time>2016-09-15T05:16:04Z</time>
      </trkpt>
      <trkpt lat="45.74713" lon="4.83259">
        <ele>179</ele>
        <time>2016-09-15T05:16:10Z</time>
      </trkpt>
      <trkpt lat="45.74704" lon="4.83247">
        <ele>181</ele>
        <time>2016-09-15T05:16:17Z</time>
      </trkpt>
      <trkpt lat="45.74696" lon="4.83237">
        <ele>180</ele>
        <time>2016-09-15T05:16:22Z</time>
      </trkpt>
      <trkpt lat="45.74683" lon="4.83226">
        <ele>175</ele>
        <time>2016-09-15T05:16:28Z</time>
      </trkpt>
      <trkpt lat="45.74656" lon="4.83204">
        <ele>174</ele>
        <time>2016-09-15T05:16:39Z</time>
      </trkpt>
      <trkpt lat="45.74645" lon="4.83197">
        <ele>174</ele>
        <time>2016-09-15T05:16:43Z</time>
      </trkpt>
      <trkpt lat="45.74632" lon="4.83187">
        <ele>174</ele>
        <time>2016-09-15T05:16:48Z</time>
      </trkpt>
      <trkpt lat="45.74624" lon="4.83181">
        <ele>169</ele>
        <time>2016-09-15T05:16:52Z</time>
      </trkpt>
      <trkpt lat="45.7461" lon="4.83176">
        <ele>170</ele>
        <time>2016-09-15T05:16:58Z</time>
      </trkpt>
      <trkpt lat="45.74584" lon="4.83161">
        <ele>170</ele>
        <time>2016-09-15T05:17:09Z</time>
      </trkpt>
      <trkpt lat="45.74573" lon="4.83148">
        <ele>167</ele>
        <time>2016-09-15T05:17:14Z</time>
      </trkpt>
      <trkpt lat="45.7456" lon="4.83131">
        <ele>167</ele>
        <time>2016-09-15T05:17:20Z</time>
      </trkpt>
      <trkpt lat="45.74557" lon="4.83125">
        <ele>165</ele>
        <time>2016-09-15T05:17:22Z</time>
      </trkpt>
      <trkpt lat="45.74543" lon="4.83108">
        <ele>164</ele>
        <time>2016-09-15T05:17:29Z</time>
      </trkpt>
      <trkpt lat="45.74534" lon="4.83098">
        <ele>165</ele>
        <time>2016-09-15T05:17:34Z</time>
      </trkpt>
      <trkpt lat="45.74515" lon="4.83073">
        <ele>165</ele>
        <time>2016-09-15T05:17:44Z</time>
      </trkpt>
      <trkpt lat="45.74502" lon="4.83058">
        <ele>165</ele>
        <time>2016-09-15T05:17:51Z</time>
      </trkpt>
      <trkpt lat="45.745" lon="4.83055">
        <ele>166</ele>
        <time>2016-09-15T05:17:52Z</time>
      </trkpt>
      <trkpt lat="45.74491" lon="4.83044">
        <ele>164</ele>
        <time>2016-09-15T05:17:58Z</time>
      </trkpt>
      <trkpt lat="45.74479" lon="4.83031">
        <ele>162</ele>
        <time>2016-09-15T05:18:04Z</time>
      </trkpt>
      <trkpt lat="45.74465" lon="4.83016">
        <ele>162</ele>
        <time>2016-09-15T05:18:10Z</time>
      </trkpt>
      <trkpt lat="45.74445" lon="4.83002">
        <ele>167</ele>
        <time>2016-09-15T05:18:21Z</time>
      </trkpt>
      <trkpt lat="45.74443" lon="4.83">
        <ele>166</ele>
        <time>2016-09-15T05:18:22Z</time>
      </trkpt>
      <trkpt lat="45.74426" lon="4.82983">
        <ele>167</ele>
        <time>2016-09-15T05:18:29Z</time>
      </trkpt>
      <trkpt lat="45.74413" lon="4.8297">
        <ele>164</ele>
        <time>2016-09-15T05:18:35Z</time>
      </trkpt>
      <trkpt lat="45.74404" lon="4.82958">
        <ele>164</ele>
        <time>2016-09-15T05:18:41Z</time>
      </trkpt>
      <trkpt lat="45.74396" lon="4.82949">
        <ele>164</ele>
        <time>2016-09-15T05:18:46Z</time>
      </trkpt>
      <trkpt lat="45.74377" lon="4.82932">
        <ele>165</ele>
        <time>2016-09-15T05:18:56Z</time>
      </trkpt>
      <trkpt lat="45.74365" lon="4.82923">
        <ele>168</ele>
        <time>2016-09-15T05:19:01Z</time>
      </trkpt>
      <trkpt lat="45.74359" lon="4.82917">
        <ele>167</ele>
        <time>2016-09-15T05:19:04Z</time>
      </trkpt>
      <trkpt lat="45.74344" lon="4.82908">
        <ele>167</ele>
        <time>2016-09-15T05:19:11Z</time>
      </trkpt>
      <trkpt lat="45.74327" lon="4.82895">
        <ele>171</ele>
        <time>2016-09-15T05:19:19Z</time>
      </trkpt>
      <trkpt lat="45.74319" lon="4.82886">
        <ele>170</ele>
        <time>2016-09-15T05:19:23Z</time>
      </trkpt>
      <trkpt lat="45.74296" lon="4.82865">
        <ele>169</ele>
        <time>2016-09-15T05:19:32Z</time>
      </trkpt>
      <trkpt lat="45.74288" lon="4.82859">
        <ele>170</ele>
        <time>2016-09-15T05:19:36Z</time>
      </trkpt>
      <trkpt lat="45.74272" lon="4.82849">
        <ele>168</ele>
        <time>2016-09-15T05:19:43Z</time>
      </trkpt>
      <trkpt lat="45.7426" lon="4.8284">
        <ele>168</ele>
        <time>2016-09-15T05:19:49Z</time>
      </trkpt>
      <trkpt lat="45.74242" lon="4.82828">
        <ele>170</ele>
        <time>2016-09-15T05:19:56Z</time>
      </trkpt>
      <trkpt lat="45.74232" lon="4.82822">
        <ele>172</ele>
        <time>2016-09-15T05:20:00Z</time>
      </trkpt>
      <trkpt lat="45.74216" lon="4.82802">
        <ele>169</ele>
        <time>2016-09-15T05:20:11Z</time>
      </trkpt>
      <trkpt lat="45.74214" lon="4.828">
        <ele>169</ele>
        <time>2016-09-15T05:20:12Z</time>
      </trkpt>
      <trkpt lat="45.74191" lon="4.8278">
        <ele>169</ele>
        <time>2016-09-15T05:20:23Z</time>
      </trkpt>
      <trkpt lat="45.74189" lon="4.82778">
        <ele>169</ele>
        <time>2016-09-15T05:20:24Z</time>
      </trkpt>
      <trkpt lat="45.74166" lon="4.8276">
        <ele>166</ele>
        <time>2016-09-15T05:20:32Z</time>
      </trkpt>
      <trkpt lat="45.74158" lon="4.8275">
        <ele>165</ele>
        <time>2016-09-15T05:20:37Z</time>
      </trkpt>
      <trkpt lat="45.7415" lon="4.82741">
        <ele>165</ele>
        <time>2016-09-15T05:20:42Z</time>
      </trkpt>
      <trkpt lat="45.74132" lon="4.82727">
        <ele>168</ele>
        <time>2016-09-15T05:20:50Z</time>
      </trkpt>
      <trkpt lat="45.74126" lon="4.82721">
        <ele>167</ele>
        <time>2016-09-15T05:20:54Z</time>
      </trkpt>
      <trkpt lat="45.74115" lon="4.82714">
        <ele>166</ele>
        <time>2016-09-15T05:21:00Z</time>
      </trkpt>
      <trkpt lat="45.74104" lon="4.82706">
        <ele>166</ele>
        <time>2016-09-15T05:21:06Z</time>
      </trkpt>
      <trkpt lat="45.74088" lon="4.8269">
        <ele>163</ele>
        <time>2016-09-15T05:21:14Z</time>
      </trkpt>
      <trkpt lat="45.74079" lon="4.82683">
        <ele>161</ele>
        <time>2016-09-15T05:21:18Z</time>
      </trkpt>
      <trkpt lat="45.7406" lon="4.82666">
        <ele>162</ele>
        <time>2016-09-15T05:21:26Z</time>
      </trkpt>
      <trkpt lat="45.74051" lon="4.82659">
        <ele>164</ele>
        <time>2016-09-15T05:21:30Z</time>
      </trkpt>
      <trkpt lat="45.74038" lon="4.82653">
        <ele>164</ele>
        <time>2016-09-15T05:21:36Z</time>
      </trkpt>
      <trkpt lat="45.74025" lon="4.8264">
        <ele>164</ele>
        <time>2016-09-15T05:21:44Z</time>
      </trkpt>
      <trkpt lat="45.73999" lon="4.8262">
        <ele>170</ele>
        <time>2016-09-15T05:21:53Z</time>
      </trkpt>
      <trkpt lat="45.73997" lon="4.82619">
        <ele>171</ele>
        <time>2016-09-15T05:21:54Z</time>
      </trkpt>
      <trkpt lat="45.73981" lon="4.82603">
        <ele>172</ele>
        <time>2016-09-15T05:22:04Z</time>
      </trkpt>
      <trkpt lat="45.73978" lon="4.82601">
        <ele>172</ele>
        <time>2016-09-15T05:22:06Z</time>
      </trkpt>
      <trkpt lat="45.73968" lon="4.82588">
        <ele>171</ele>
        <time>2016-09-15T05:22:12Z</time>
      </trkpt>
      <trkpt lat="45.73955" lon="4.8258">
        <ele>169</ele>
        <time>2016-09-15T05:22:18Z</time>
      </trkpt>
      <trkpt lat="45.73932" lon="4.82562">
        <ele>169</ele>
        <time>2016-09-15T05:22:29Z</time>
      </trkpt>
      <trkpt lat="45.73928" lon="4.82559">
        <ele>168</ele>
        <time>2016-09-15T05:22:31Z</time>
      </trkpt>
      <trkpt lat="45.73912" lon="4.82549">
        <ele>168</ele>
        <time>2016-09-15T05:22:38Z</time>
      </trkpt>
      <trkpt lat="45.73885" lon="4.82532">
        <ele>169</ele>
        <time>2016-09-15T05:22:47Z</time>
      </trkpt>
      <trkpt lat="45.73875" lon="4.82521">
        <ele>170</ele>
        <time>2016-09-15T05:22:53Z</time>
      </trkpt>
      <trkpt lat="45.73873" lon="4.82518">
        <ele>169</ele>
        <time>2016-09-15T05:22:54Z</time>
      </trkpt>
      <trkpt lat="45.73862" lon="4.82505">
        <ele>169</ele>
        <time>2016-09-15T05:23:00Z</time>
      </trkpt>
      <trkpt lat="45.7384" lon="4.82483">
        <ele>169</ele>
        <time>2016-09-15T05:23:10Z</time>
      </trkpt>
      <trkpt lat="45.7383" lon="4.82471">
        <ele>172</ele>
        <time>2016-09-15T05:23:14Z</time>
      </trkpt>
      <trkpt lat="45.73826" lon="4.82464">
        <ele>174</ele>
        <time>2016-09-15T05:23:18Z</time>
      </trkpt>
      <trkpt lat="45.73815" lon="4.82461">
        <ele>175</ele>
        <time>2016-09-15T05:23:24Z</time>
      </trkpt>
      <trkpt lat="45.73803" lon="4.82456">
        <ele>174</ele>
        <time>2016-09-15T05:23:30Z</time>
      </trkpt>
      <trkpt lat="45.73788" lon="4.82449">
        <ele>173</ele>
        <time>2016-09-15T05:23:36Z</time>
      </trkpt>
      <trkpt lat="45.73765" lon="4.8243">
        <ele>175</ele>
        <time>2016-09-15T05:23:46Z</time>
      </trkpt>
      <trkpt lat="45.73761" lon="4.82426">
        <ele>175</ele>
        <time>2016-09-15T05:23:48Z</time>
      </trkpt>
      <trkpt lat="45.73752" lon="4.82413">
        <ele>174</ele>
        <time>2016-09-15T05:23:55Z</time>
      </trkpt>
      <trkpt lat="45.73735" lon="4.82398">
        <ele>180</ele>
        <time>2016-09-15T05:24:05Z</time>
      </trkpt>
      <trkpt lat="45.73733" lon="4.82397">
        <ele>181</ele>
        <time>2016-09-15T05:24:06Z</time>
      </trkpt>
      <trkpt lat="45.73718" lon="4.82381">
        <ele>182</ele>
        <time>2016-09-15T05:24:14Z</time>
      </trkpt>
      <trkpt lat="45.73712" lon="4.82372">
        <ele>182</ele>
        <time>2016-09-15T05:24:18Z</time>
      </trkpt>
      <trkpt lat="45.73701" lon="4.8236">
        <ele>180</ele>
        <time>2016-09-15T05:24:24Z</time>
      </trkpt>
      <trkpt lat="45.73672" lon="4.82351">
        <ele>166</ele>
        <time>2016-09-15T05:24:34Z</time>
      </trkpt>
      <trkpt lat="45.73665" lon="4.82347">
        <ele>164</ele>
        <time>2016-09-15T05:24:37Z</time>
      </trkpt>
      <trkpt lat="45.73654" lon="4.82345">
        <ele>163</ele>
        <time>2016-09-15T05:24:42Z</time>
      </trkpt>
      <trkpt lat="45.73637" lon="4.82332">
        <ele>160</ele>
        <time>2016-09-15T05:24:51Z</time>
      </trkpt>
      <trkpt lat="45.73619" lon="4.8232">
        <ele>161</ele>
        <time>2016-09-15T05:24:59Z</time>
      </trkpt>
      <trkpt lat="45.73617" lon="4.82319">
        <ele>161</ele>
        <time>2016-09-15T05:25:00Z</time>
      </trkpt>
      <trkpt lat="45.73597" lon="4.823">
        <ele>158</ele>
        <time>2016-09-15T05:25:08Z</time>
      </trkpt>
      <trkpt lat="45.73585" lon="4.8229">
        <ele>160</ele>
        <time>2016-09-15T05:25:14Z</time>
      </trkpt>
      <trkpt lat="45.73578" lon="4.82285">
        <ele>163</ele>
        <time>2016-09-15T05:25:18Z</time>
      </trkpt>
      <trkpt lat="45.73567" lon="4.82275">
        <ele>163</ele>
        <time>2016-09-15T05:25:24Z</time>
      </trkpt>
      <trkpt lat="45.7355" lon="4.82265">
        <ele>164</ele>
        <time>2016-09-15T05:25:30Z</time>
      </trkpt>
      <trkpt lat="45.73527" lon="4.82255">
        <ele>170</ele>
        <time>2016-09-15T05:25:40Z</time>
      </trkpt>
      <trkpt lat="45.73523" lon="4.82254">
        <ele>171</ele>
        <time>2016-09-15T05:25:42Z</time>
      </trkpt>
      <trkpt lat="45.73509" lon="4.82243">
        <ele>166</ele>
        <time>2016-09-15T05:25:48Z</time>
      </trkpt>
      <trkpt lat="45.73498" lon="4.82231">
        <ele>165</ele>
        <time>2016-09-15T05:25:54Z</time>
      </trkpt>
      <trkpt lat="45.7348" lon="4.82216">
        <ele>171</ele>
        <time>2016-09-15T05:26:02Z</time>
      </trkpt>
      <trkpt lat="45.73463" lon="4.82205">
        <ele>169</ele>
        <time>2016-09-15T05:26:09Z</time>
      </trkpt>
      <trkpt lat="45.73453" lon="4.82203">
        <ele>170</ele>
        <time>2016-09-15T05:26:13Z</time>
      </trkpt>
      <trkpt lat="45.73445" lon="4.82202">
        <ele>168</ele>
        <time>2016-09-15T05:26:18Z</time>
      </trkpt>
      <trkpt lat="45.73435" lon="4.82194">
        <ele>168</ele>
        <time>2016-09-15T05:26:24Z</time>
      </trkpt>
      <trkpt lat="45.73408" lon="4.82194">
        <ele>173</ele>
        <time>2016-09-15T05:26:33Z</time>
      </trkpt>
      <trkpt lat="45.734" lon="4.82193">
        <ele>169</ele>
        <time>2016-09-15T05:26:36Z</time>
      </trkpt>
      <trkpt lat="45.73373" lon="4.82193">
        <ele>172</ele>
        <time>2016-09-15T05:26:47Z</time>
      </trkpt>
      <trkpt lat="45.73366" lon="4.82193">
        <ele>175</ele>
        <time>2016-09-15T05:26:50Z</time>
      </trkpt>
      <trkpt lat="45.73356" lon="4.82193">
        <ele>179</ele>
        <time>2016-09-15T05:26:55Z</time>
      </trkpt>
      <trkpt lat="45.73334" lon="4.82189">
        <ele>184</ele>
        <time>2016-09-15T05:27:04Z</time>
      </trkpt>
      <trkpt lat="45.73326" lon="4.8219">
        <ele>182</ele>
        <time>2016-09-15T05:27:08Z</time>
      </trkpt>
      <trkpt lat="45.73315" lon="4.8219">
        <ele>184</ele>
        <time>2016-09-15T05:27:12Z</time>
      </trkpt>
      <trkpt lat="45.73281" lon="4.82168">
        <ele>183</ele>
        <time>2016-09-15T05:27:27Z</time>
      </trkpt>
      <trkpt lat="45.73254" lon="4.82154">
        <ele>175</ele>
        <time>2016-09-15T05:27:38Z</time>
      </trkpt>
      <trkpt lat="45.73252" lon="4.82154">
        <ele>172</ele>
        <time>2016-09-15T05:27:39Z</time>
      </trkpt>
      <trkpt lat="45.73233" lon="4.82157">
        <ele>178</ele>
        <time>2016-09-15T05:27:45Z</time>
      </trkpt>
      <trkpt lat="45.73214" lon="4.82137">
        <ele>179</ele>
        <time>2016-09-15T05:27:54Z</time>
      </trkpt>
      <trkpt lat="45.73201" lon="4.82137">
        <ele>181</ele>
        <time>2016-09-15T05:28:02Z</time>
      </trkpt>
      <trkpt lat="45.73193" lon="4.82132">
        <ele>178</ele>
        <time>2016-09-15T05:28:06Z</time>
      </trkpt>
      <trkpt lat="45.7318" lon="4.82127">
        <ele>173</ele>
        <time>2016-09-15T05:28:12Z</time>
      </trkpt>
      <trkpt lat="45.73175" lon="4.82126">
        <ele>171</ele>
        <time>2016-09-15T05:28:15Z</time>
      </trkpt>
      <trkpt lat="45.73155" lon="4.8212">
        <ele>167</ele>
        <time>2016-09-15T05:28:24Z</time>
      </trkpt>
      <trkpt lat="45.73139" lon="4.82116">
        <ele>167</ele>
        <time>2016-09-15T05:28:30Z</time>
      </trkpt>
      <trkpt lat="45.73128" lon="4.82116">
        <ele>168</ele>
        <time>2016-09-15T05:28:35Z</time>
      </trkpt>
      <trkpt lat="45.73119" lon="4.82119">
        <ele>168</ele>
        <time>2016-09-15T05:28:42Z</time>
      </trkpt>
      <trkpt lat="45.7313" lon="4.82115">
        <ele>166</ele>
        <time>2016-09-15T05:28:46Z</time>
      </trkpt>
      <trkpt lat="45.7315" lon="4.82118">
        <ele>162</ele>
        <time>2016-09-15T05:28:54Z</time>
      </trkpt>
      <trkpt lat="45.73157" lon="4.82119">
        <ele>162</ele>
        <time>2016-09-15T05:28:57Z</time>
      </trkpt>
      <trkpt lat="45.73169" lon="4.82121">
        <ele>164</ele>
        <time>2016-09-15T05:29:04Z</time>
      </trkpt>
      <trkpt lat="45.73177" lon="4.82124">
        <ele>161</ele>
        <time>2016-09-15T05:29:09Z</time>
      </trkpt>
      <trkpt lat="45.73188" lon="4.8213">
        <ele>165</ele>
        <time>2016-09-15T05:29:15Z</time>
      </trkpt>
      <trkpt lat="45.73218" lon="4.8214">
        <ele>175</ele>
        <time>2016-09-15T05:29:25Z</time>
      </trkpt>
      <trkpt lat="45.73223" lon="4.82143">
        <ele>175</ele>
        <time>2016-09-15T05:29:27Z</time>
      </trkpt>
      <trkpt lat="45.73237" lon="4.82146">
        <ele>175</ele>
        <time>2016-09-15T05:29:33Z</time>
      </trkpt>
      <trkpt lat="45.73252" lon="4.82155">
        <ele>175</ele>
        <time>2016-09-15T05:29:40Z</time>
      </trkpt>
      <trkpt lat="45.73262" lon="4.82162">
        <ele>169</ele>
        <time>2016-09-15T05:29:45Z</time>
      </trkpt>
      <trkpt lat="45.73279" lon="4.82172">
        <ele>167</ele>
        <time>2016-09-15T05:29:51Z</time>
      </trkpt>
      <trkpt lat="45.73293" lon="4.82177">
        <ele>163</ele>
        <time>2016-09-15T05:29:57Z</time>
      </trkpt>
      <trkpt lat="45.73331" lon="4.82187">
        <ele>168</ele>
        <time>2016-09-15T05:30:18Z</time>
      </trkpt>
      <trkpt lat="45.7334" lon="4.82187">
        <ele>167</ele>
        <time>2016-09-15T05:30:22Z</time>
      </trkpt>
      <trkpt lat="45.73347" lon="4.82188">
        <ele>166</ele>
        <time>2016-09-15T05:30:25Z</time>
      </trkpt>
      <trkpt lat="45.73361" lon="4.82189">
        <ele>169</ele>
        <time>2016-09-15T05:30:31Z</time>
      </trkpt>
      <trkpt lat="45.73376" lon="4.82189">
        <ele>168</ele>
        <time>2016-09-15T05:30:37Z</time>
      </trkpt>
      <trkpt lat="45.73404" lon="4.82196">
        <ele>172</ele>
        <time>2016-09-15T05:30:45Z</time>
      </trkpt>
      <trkpt lat="45.73421" lon="4.82202">
        <ele>170</ele>
        <time>2016-09-15T05:30:52Z</time>
      </trkpt>
      <trkpt lat="45.73427" lon="4.82202">
        <ele>169</ele>
        <time>2016-09-15T05:30:55Z</time>
      </trkpt>
      <trkpt lat="45.73437" lon="4.82201">
        <ele>170</ele>
        <time>2016-09-15T05:31:01Z</time>
      </trkpt>
      <trkpt lat="45.73457" lon="4.82204">
        <ele>170</ele>
        <time>2016-09-15T05:31:07Z</time>
      </trkpt>
      <trkpt lat="45.73477" lon="4.82212">
        <ele>167</ele>
        <time>2016-09-15T05:31:14Z</time>
      </trkpt>
      <trkpt lat="45.73487" lon="4.82219">
        <ele>167</ele>
        <time>2016-09-15T05:31:19Z</time>
      </trkpt>
      <trkpt lat="45.735" lon="4.82232">
        <ele>167</ele>
        <time>2016-09-15T05:31:28Z</time>
      </trkpt>
      <trkpt lat="45.73503" lon="4.82236">
        <ele>166</ele>
        <time>2016-09-15T05:31:31Z</time>
      </trkpt>
      <trkpt lat="45.73528" lon="4.82251">
        <ele>161</ele>
        <time>2016-09-15T05:31:42Z</time>
      </trkpt>
      <trkpt lat="45.7353" lon="4.82252">
        <ele>161</ele>
        <time>2016-09-15T05:31:43Z</time>
      </trkpt>
      <trkpt lat="45.73541" lon="4.82261">
        <ele>163</ele>
        <time>2016-09-15T05:31:49Z</time>
      </trkpt>
      <trkpt lat="45.73571" lon="4.8228">
        <ele>168</ele>
        <time>2016-09-15T05:32:00Z</time>
      </trkpt>
      <trkpt lat="45.73573" lon="4.82282">
        <ele>168</ele>
        <time>2016-09-15T05:32:01Z</time>
      </trkpt>
      <trkpt lat="45.73598" lon="4.82303">
        <ele>165</ele>
        <time>2016-09-15T05:32:12Z</time>
      </trkpt>
      <trkpt lat="45.73599" lon="4.82306">
        <ele>164</ele>
        <time>2016-09-15T05:32:13Z</time>
      </trkpt>
      <trkpt lat="45.73614" lon="4.82319">
        <ele>160</ele>
        <time>2016-09-15T05:32:22Z</time>
      </trkpt>
      <trkpt lat="45.7362" lon="4.82325">
        <ele>162</ele>
        <time>2016-09-15T05:32:26Z</time>
      </trkpt>
      <trkpt lat="45.73638" lon="4.82341">
        <ele>165</ele>
        <time>2016-09-15T05:32:34Z</time>
      </trkpt>
      <trkpt lat="45.73645" lon="4.82346">
        <ele>166</ele>
        <time>2016-09-15T05:32:37Z</time>
      </trkpt>
      <trkpt lat="45.73667" lon="4.82353">
        <ele>166</ele>
        <time>2016-09-15T05:32:48Z</time>
      </trkpt>
      <trkpt lat="45.73678" lon="4.82358">
        <ele>171</ele>
        <time>2016-09-15T05:32:52Z</time>
      </trkpt>
      <trkpt lat="45.73684" lon="4.82363">
        <ele>171</ele>
        <time>2016-09-15T05:32:55Z</time>
      </trkpt>
      <trkpt lat="45.73701" lon="4.82374">
        <ele>166</ele>
        <time>2016-09-15T05:33:02Z</time>
      </trkpt>
      <trkpt lat="45.73713" lon="4.82377">
        <ele>168</ele>
        <time>2016-09-15T05:33:07Z</time>
      </trkpt>
      <trkpt lat="45.73723" lon="4.82387">
        <ele>164</ele>
        <time>2016-09-15T05:33:13Z</time>
      </trkpt>
      <trkpt lat="45.73735" lon="4.82399">
        <ele>162</ele>
        <time>2016-09-15T05:33:21Z</time>
      </trkpt>
      <trkpt lat="45.73736" lon="4.82404">
        <ele>162</ele>
        <time>2016-09-15T05:33:25Z</time>
      </trkpt>
      <trkpt lat="45.73745" lon="4.82412">
        <ele>163</ele>
        <time>2016-09-15T05:33:31Z</time>
      </trkpt>
      <trkpt lat="45.7376" lon="4.82425">
        <ele>160</ele>
        <time>2016-09-15T05:33:37Z</time>
      </trkpt>
      <trkpt lat="45.73798" lon="4.82449">
        <ele>168</ele>
        <time>2016-09-15T05:33:46Z</time>
      </trkpt>
      <trkpt lat="45.73807" lon="4.82454">
        <ele>168</ele>
        <time>2016-09-15T05:33:50Z</time>
      </trkpt>
      <trkpt lat="45.73821" lon="4.82464">
        <ele>166</ele>
        <time>2016-09-15T05:33:57Z</time>
      </trkpt>
      <trkpt lat="45.73831" lon="4.82472">
        <ele>161</ele>
        <time>2016-09-15T05:34:04Z</time>
      </trkpt>
      <trkpt lat="45.73835" lon="4.82477">
        <ele>162</ele>
        <time>2016-09-15T05:34:07Z</time>
      </trkpt>
      <trkpt lat="45.73853" lon="4.82492">
        <ele>164</ele>
        <time>2016-09-15T05:34:15Z</time>
      </trkpt>
      <trkpt lat="45.73875" lon="4.8251">
        <ele>166</ele>
        <time>2016-09-15T05:34:24Z</time>
      </trkpt>
      <trkpt lat="45.73877" lon="4.82511">
        <ele>165</ele>
        <time>2016-09-15T05:34:25Z</time>
      </trkpt>
      <trkpt lat="45.73894" lon="4.82525">
        <ele>165</ele>
        <time>2016-09-15T05:34:31Z</time>
      </trkpt>
      <trkpt lat="45.73904" lon="4.82535">
        <ele>165</ele>
        <time>2016-09-15T05:34:37Z</time>
      </trkpt>
      <trkpt lat="45.7392" lon="4.82547">
        <ele>166</ele>
        <time>2016-09-15T05:34:45Z</time>
      </trkpt>
      <trkpt lat="45.73928" lon="4.82555">
        <ele>168</ele>
        <time>2016-09-15T05:34:50Z</time>
      </trkpt>
      <trkpt lat="45.73943" lon="4.82562">
        <ele>166</ele>
        <time>2016-09-15T05:34:57Z</time>
      </trkpt>
      <trkpt lat="45.7395" lon="4.82567">
        <ele>166</ele>
        <time>2016-09-15T05:35:01Z</time>
      </trkpt>
      <trkpt lat="45.7397" lon="4.82586">
        <ele>164</ele>
        <time>2016-09-15T05:35:12Z</time>
      </trkpt>
      <trkpt lat="45.73974" lon="4.82591">
        <ele>161</ele>
        <time>2016-09-15T05:35:14Z</time>
      </trkpt>
      <trkpt lat="45.73986" lon="4.82605">
        <ele>161</ele>
        <time>2016-09-15T05:35:21Z</time>
      </trkpt>
      <trkpt lat="45.73993" lon="4.8261">
        <ele>168</ele>
        <time>2016-09-15T05:35:25Z</time>
      </trkpt>
      <trkpt lat="45.74011" lon="4.82626">
        <ele>167</ele>
        <time>2016-09-15T05:35:33Z</time>
      </trkpt>
      <trkpt lat="45.7402" lon="4.82633">
        <ele>165</ele>
        <time>2016-09-15T05:35:37Z</time>
      </trkpt>
      <trkpt lat="45.74033" lon="4.82644">
        <ele>160</ele>
        <time>2016-09-15T05:35:46Z</time>
      </trkpt>
      <trkpt lat="45.74039" lon="4.82652">
        <ele>163</ele>
        <time>2016-09-15T05:35:49Z</time>
      </trkpt>
      <trkpt lat="45.74049" lon="4.82663">
        <ele>161</ele>
        <time>2016-09-15T05:35:55Z</time>
      </trkpt>
      <trkpt lat="45.74078" lon="4.82683">
        <ele>163</ele>
        <time>2016-09-15T05:36:04Z</time>
      </trkpt>
      <trkpt lat="45.74087" lon="4.82687">
        <ele>165</ele>
        <time>2016-09-15T05:36:07Z</time>
      </trkpt>
      <trkpt lat="45.74099" lon="4.82692">
        <ele>167</ele>
        <time>2016-09-15T05:36:13Z</time>
      </trkpt>
      <trkpt lat="45.74111" lon="4.82708">
        <ele>163</ele>
        <time>2016-09-15T05:36:19Z</time>
      </trkpt>
      <trkpt lat="45.7413" lon="4.82724">
        <ele>161</ele>
        <time>2016-09-15T05:36:29Z</time>
      </trkpt>
      <trkpt lat="45.74133" lon="4.82727">
        <ele>162</ele>
        <time>2016-09-15T05:36:31Z</time>
      </trkpt>
      <trkpt lat="45.74147" lon="4.82739">
        <ele>161</ele>
        <time>2016-09-15T05:36:38Z</time>
      </trkpt>
      <trkpt lat="45.74155" lon="4.82748">
        <ele>161</ele>
        <time>2016-09-15T05:36:43Z</time>
      </trkpt>
      <trkpt lat="45.74164" lon="4.82758">
        <ele>156</ele>
        <time>2016-09-15T05:36:49Z</time>
      </trkpt>
      <trkpt lat="45.74174" lon="4.82768">
        <ele>157</ele>
        <time>2016-09-15T05:36:55Z</time>
      </trkpt>
      <trkpt lat="45.74193" lon="4.82781">
        <ele>163</ele>
        <time>2016-09-15T05:37:04Z</time>
      </trkpt>
      <trkpt lat="45.74201" lon="4.82787">
        <ele>164</ele>
        <time>2016-09-15T05:37:07Z</time>
      </trkpt>
      <trkpt lat="45.74214" lon="4.82797">
        <ele>162</ele>
        <time>2016-09-15T05:37:13Z</time>
      </trkpt>
      <trkpt lat="45.74227" lon="4.8281">
        <ele>159</ele>
        <time>2016-09-15T05:37:20Z</time>
      </trkpt>
      <trkpt lat="45.74239" lon="4.82821">
        <ele>157</ele>
        <time>2016-09-15T05:37:26Z</time>
      </trkpt>
      <trkpt lat="45.74251" lon="4.82831">
        <ele>160</ele>
        <time>2016-09-15T05:37:31Z</time>
      </trkpt>
      <trkpt lat="45.74261" lon="4.82845">
        <ele>156</ele>
        <time>2016-09-15T05:37:37Z</time>
      </trkpt>
      <trkpt lat="45.74268" lon="4.82857">
        <ele>155</ele>
        <time>2016-09-15T05:37:43Z</time>
      </trkpt>
      <trkpt lat="45.74277" lon="4.82864">
        <ele>154</ele>
        <time>2016-09-15T05:37:49Z</time>
      </trkpt>
      <trkpt lat="45.74302" lon="4.82876">
        <ele>162</ele>
        <time>2016-09-15T05:37:58Z</time>
      </trkpt>
      <trkpt lat="45.74323" lon="4.82893">
        <ele>160</ele>
        <time>2016-09-15T05:38:06Z</time>
      </trkpt>
      <trkpt lat="45.74325" lon="4.82895">
        <ele>160</ele>
        <time>2016-09-15T05:38:07Z</time>
      </trkpt>
      <trkpt lat="45.74338" lon="4.82911">
        <ele>159</ele>
        <time>2016-09-15T05:38:14Z</time>
      </trkpt>
      <trkpt lat="45.74357" lon="4.82928">
        <ele>158</ele>
        <time>2016-09-15T05:38:21Z</time>
      </trkpt>
      <trkpt lat="45.74364" lon="4.82931">
        <ele>157</ele>
        <time>2016-09-15T05:38:26Z</time>
      </trkpt>
      <trkpt lat="45.74375" lon="4.82932">
        <ele>157</ele>
        <time>2016-09-15T05:38:32Z</time>
      </trkpt>
      <trkpt lat="45.74394" lon="4.82952">
        <ele>162</ele>
        <time>2016-09-15T05:38:41Z</time>
      </trkpt>
      <trkpt lat="45.74401" lon="4.82959">
        <ele>162</ele>
        <time>2016-09-15T05:38:44Z</time>
      </trkpt>
      <trkpt lat="45.74421" lon="4.82974">
        <ele>164</ele>
        <time>2016-09-15T05:38:54Z</time>
      </trkpt>
      <trkpt lat="45.74424" lon="4.82977">
        <ele>163</ele>
        <time>2016-09-15T05:38:56Z</time>
      </trkpt>
      <trkpt lat="45.74437" lon="4.82987">
        <ele>164</ele>
        <time>2016-09-15T05:39:02Z</time>
      </trkpt>
      <trkpt lat="45.74459" lon="4.83006">
        <ele>167</ele>
        <time>2016-09-15T05:39:13Z</time>
      </trkpt>
      <trkpt lat="45.74461" lon="4.83007">
        <ele>165</ele>
        <time>2016-09-15T05:39:14Z</time>
      </trkpt>
      <trkpt lat="45.7447" lon="4.83018">
        <ele>163</ele>
        <time>2016-09-15T05:39:20Z</time>
      </trkpt>
      <trkpt lat="45.74481" lon="4.83028">
        <ele>159</ele>
        <time>2016-09-15T05:39:26Z</time>
      </trkpt>
      <trkpt lat="45.74491" lon="4.83045">
        <ele>158</ele>
        <time>2016-09-15T05:39:32Z</time>
      </trkpt>
      <trkpt lat="45.74502" lon="4.83061">
        <ele>159</ele>
        <time>2016-09-15T05:39:38Z</time>
      </trkpt>
      <trkpt lat="45.7452" lon="4.8308">
        <ele>161</ele>
        <time>2016-09-15T05:39:46Z</time>
      </trkpt>
      <trkpt lat="45.74526" lon="4.83089">
        <ele>160</ele>
        <time>2016-09-15T05:39:50Z</time>
      </trkpt>
      <trkpt lat="45.74537" lon="4.83103">
        <ele>159</ele>
        <time>2016-09-15T05:39:56Z</time>
      </trkpt>
      <trkpt lat="45.74553" lon="4.83118">
        <ele>159</ele>
        <time>2016-09-15T05:40:04Z</time>
      </trkpt>
      <trkpt lat="45.74561" lon="4.83126">
        <ele>160</ele>
        <time>2016-09-15T05:40:08Z</time>
      </trkpt>
      <trkpt lat="45.74573" lon="4.83142">
        <ele>161</ele>
        <time>2016-09-15T05:40:15Z</time>
      </trkpt>
      <trkpt lat="45.74584" lon="4.83151">
        <ele>162</ele>
        <time>2016-09-15T05:40:20Z</time>
      </trkpt>
      <trkpt lat="45.74595" lon="4.8316">
        <ele>164</ele>
        <time>2016-09-15T05:40:26Z</time>
      </trkpt>
      <trkpt lat="45.74609" lon="4.83171">
        <ele>165</ele>
        <time>2016-09-15T05:40:34Z</time>
      </trkpt>
      <trkpt lat="45.74632" lon="4.8318">
        <ele>164</ele>
        <time>2016-09-15T05:40:41Z</time>
      </trkpt>
      <trkpt lat="45.74646" lon="4.83195">
        <ele>164</ele>
        <time>2016-09-15T05:40:49Z</time>
      </trkpt>
      <trkpt lat="45.74651" lon="4.83201">
        <ele>165</ele>
        <time>2016-09-15T05:40:52Z</time>
      </trkpt>
      <trkpt lat="45.74658" lon="4.83207">
        <ele>165</ele>
        <time>2016-09-15T05:40:56Z</time>
      </trkpt>
      <trkpt lat="45.74673" lon="4.83217">
        <ele>168</ele>
        <time>2016-09-15T05:41:03Z</time>
      </trkpt>
      <trkpt lat="45.74683" lon="4.83227">
        <ele>163</ele>
        <time>2016-09-15T05:41:09Z</time>
      </trkpt>
      <trkpt lat="45.74691" lon="4.83235">
        <ele>163</ele>
        <time>2016-09-15T05:41:14Z</time>
      </trkpt>
      <trkpt lat="45.74705" lon="4.83244">
        <ele>162</ele>
        <time>2016-09-15T05:41:20Z</time>
      </trkpt>
      <trkpt lat="45.74724" lon="4.83259">
        <ele>162</ele>
        <time>2016-09-15T05:41:29Z</time>
      </trkpt>
      <trkpt lat="45.74728" lon="4.83265">
        <ele>163</ele>
        <time>2016-09-15T05:41:32Z</time>
      </trkpt>
      <trkpt lat="45.74739" lon="4.83276">
        <ele>167</ele>
        <time>2016-09-15T05:41:38Z</time>
      </trkpt>
      <trkpt lat="45.74756" lon="4.83283">
        <ele>170</ele>
        <time>2016-09-15T05:41:44Z</time>
      </trkpt>
      <trkpt lat="45.74771" lon="4.83291">
        <ele>171</ele>
        <time>2016-09-15T05:41:50Z</time>
      </trkpt>
      <trkpt lat="45.74785" lon="4.833">
        <ele>174</ele>
        <time>2016-09-15T05:41:56Z</time>
      </trkpt>
      <trkpt lat="45.74801" lon="4.8331">
        <ele>174</ele>
        <time>2016-09-15T05:42:03Z</time>
      </trkpt>
      <trkpt lat="45.74811" lon="4.83319">
        <ele>168</ele>
        <time>2016-09-15T05:42:11Z</time>
      </trkpt>
      <trkpt lat="45.74822" lon="4.83334">
        <ele>166</ele>
        <time>2016-09-15T05:42:18Z</time>
      </trkpt>
      <trkpt lat="45.74832" lon="4.83341">
        <ele>167</ele>
        <time>2016-09-15T05:42:22Z</time>
      </trkpt>
      <trkpt lat="45.74848" lon="4.83354">
        <ele>168</ele>
        <time>2016-09-15T05:42:28Z</time>
      </trkpt>
      <trkpt lat="45.74873" lon="4.83371">
        <ele>166</ele>
        <time>2016-09-15T05:42:38Z</time>
      </trkpt>
      <trkpt lat="45.74875" lon="4.83373">
        <ele>165</ele>
        <time>2016-09-15T05:42:39Z</time>
      </trkpt>
      <trkpt lat="45.74887" lon="4.83386">
        <ele>163</ele>
        <time>2016-09-15T05:42:47Z</time>
      </trkpt>
      <trkpt lat="45.74902" lon="4.83392">
        <ele>168</ele>
        <time>2016-09-15T05:42:54Z</time>
      </trkpt>
      <trkpt lat="45.74909" lon="4.834">
        <ele>171</ele>
        <time>2016-09-15T05:42:58Z</time>
      </trkpt>
      <trkpt lat="45.74918" lon="4.83409">
        <ele>169</ele>
        <time>2016-09-15T05:43:03Z</time>
      </trkpt>
      <trkpt lat="45.74937" lon="4.83431">
        <ele>170</ele>
        <time>2016-09-15T05:43:12Z</time>
      </trkpt>
      <trkpt lat="45.74943" lon="4.83435">
        <ele>170</ele>
        <time>2016-09-15T05:43:15Z</time>
      </trkpt>
      <trkpt lat="45.74965" lon="4.83446">
        <ele>167</ele>
        <time>2016-09-15T05:43:24Z</time>
      </trkpt>
      <trkpt lat="45.74978" lon="4.83459">
        <ele>164</ele>
        <time>2016-09-15T05:43:31Z</time>
      </trkpt>
      <trkpt lat="45.74983" lon="4.83462">
        <ele>166</ele>
        <time>2016-09-15T05:43:33Z</time>
      </trkpt>
      <trkpt lat="45.74995" lon="4.83473">
        <ele>168</ele>
        <time>2016-09-15T05:43:39Z</time>
      </trkpt>
      <trkpt lat="45.75009" lon="4.83479">
        <ele>166</ele>
        <time>2016-09-15T05:43:45Z</time>
      </trkpt>
      <trkpt lat="45.75021" lon="4.8349">
        <ele>163</ele>
        <time>2016-09-15T05:43:51Z</time>
      </trkpt>
      <trkpt lat="45.75037" lon="4.83502">
        <ele>159</ele>
        <time>2016-09-15T05:43:58Z</time>
      </trkpt>
      <trkpt lat="45.75047" lon="4.83511">
        <ele>158</ele>
        <time>2016-09-15T05:44:03Z</time>
      </trkpt>
      <trkpt lat="45.75059" lon="4.83522">
        <ele>154</ele>
        <time>2016-09-15T05:44:10Z</time>
      </trkpt>
      <trkpt lat="45.75071" lon="4.83529">
        <ele>154</ele>
        <time>2016-09-15T05:44:15Z</time>
      </trkpt>
      <trkpt lat="45.75086" lon="4.83538">
        <ele>155</ele>
        <time>2016-09-15T05:44:21Z</time>
      </trkpt>
      <trkpt lat="45.75098" lon="4.83547">
        <ele>154</ele>
        <time>2016-09-15T05:44:27Z</time>
      </trkpt>
      <trkpt lat="45.75112" lon="4.83559">
        <ele>157</ele>
        <time>2016-09-15T05:44:34Z</time>
      </trkpt>
      <trkpt lat="45.75124" lon="4.83569">
        <ele>160</ele>
        <time>2016-09-15T05:44:40Z</time>
      </trkpt>
      <trkpt lat="45.75142" lon="4.83589">
        <ele>162</ele>
        <time>2016-09-15T05:44:49Z</time>
      </trkpt>
      <trkpt lat="45.75147" lon="4.83593">
        <ele>162</ele>
        <time>2016-09-15T05:44:51Z</time>
      </trkpt>
      <trkpt lat="45.75164" lon="4.83602">
        <ele>163</ele>
        <time>2016-09-15T05:44:57Z</time>
      </trkpt>
      <trkpt lat="45.75179" lon="4.83613">
        <ele>163</ele>
        <time>2016-09-15T05:45:03Z</time>
      </trkpt>
      <trkpt lat="45.75188" lon="4.83621">
        <ele>161</ele>
        <time>2016-09-15T05:45:09Z</time>
      </trkpt>
      <trkpt lat="45.75195" lon="4.83629">
        <ele>158</ele>
        <time>2016-09-15T05:45:15Z</time>
      </trkpt>
      <trkpt lat="45.75214" lon="4.83651">
        <ele>156</ele>
        <time>2016-09-15T05:45:26Z</time>
      </trkpt>
      <trkpt lat="45.75234" lon="4.83659">
        <ele>159</ele>
        <time>2016-09-15T05:45:30Z</time>
      </trkpt>
      <trkpt lat="45.75258" lon="4.8367">
        <ele>166</ele>
        <time>2016-09-15T05:45:37Z</time>
      </trkpt>
      <trkpt lat="45.75262" lon="4.83676">
        <ele>165</ele>
        <time>2016-09-15T05:45:39Z</time>
      </trkpt>
      <trkpt lat="45.75277" lon="4.83682">
        <ele>165</ele>
        <time>2016-09-15T05:45:45Z</time>
      </trkpt>
      <trkpt lat="45.75293" lon="4.83693">
        <ele>167</ele>
        <time>2016-09-15T05:45:51Z</time>
      </trkpt>
      <trkpt lat="45.75308" lon="4.83706">
        <ele>167</ele>
        <time>2016-09-15T05:45:57Z</time>
      </trkpt>
      <trkpt lat="45.75323" lon="4.83719">
        <ele>166</ele>
        <time>2016-09-15T05:46:04Z</time>
      </trkpt>
      <trkpt lat="45.75334" lon="4.8373">
        <ele>167</ele>
        <time>2016-09-15T05:46:09Z</time>
      </trkpt>
      <trkpt lat="45.7536" lon="4.83744">
        <ele>170</ele>
        <time>2016-09-15T05:46:18Z</time>
      </trkpt>
      <trkpt lat="45.7537" lon="4.8375">
        <ele>168</ele>
        <time>2016-09-15T05:46:22Z</time>
      </trkpt>
      <trkpt lat="45.75381" lon="4.8376">
        <ele>168</ele>
        <time>2016-09-15T05:46:27Z</time>
      </trkpt>
      <trkpt lat="45.75396" lon="4.83769">
        <ele>169</ele>
        <time>2016-09-15T05:46:33Z</time>
      </trkpt>
      <trkpt lat="45.7541" lon="4.83782">
        <ele>168</ele>
        <time>2016-09-15T05:46:40Z</time>
      </trkpt>
      <trkpt lat="45.75421" lon="4.8379">
        <ele>167</ele>
        <time>2016-09-15T05:46:45Z</time>
      </trkpt>
      <trkpt lat="45.75435" lon="4.83799">
        <ele>164</ele>
        <time>2016-09-15T05:46:52Z</time>
      </trkpt>
      <trkpt lat="45.75455" lon="4.83811">
        <ele>164</ele>
        <time>2016-09-15T05:47:00Z</time>
      </trkpt>
      <trkpt lat="45.75462" lon="4.83816">
        <ele>165</ele>
        <time>2016-09-15T05:47:03Z</time>
      </trkpt>
      <trkpt lat="45.75475" lon="4.83825">
        <ele>166</ele>
        <time>2016-09-15T05:47:09Z</time>
      </trkpt>
      <trkpt lat="45.75496" lon="4.83838">
        <ele>165</ele>
        <time>2016-09-15T05:47:18Z</time>
      </trkpt>
      <trkpt lat="45.75504" lon="4.83845">
        <ele>164</ele>
        <time>2016-09-15T05:47:22Z</time>
      </trkpt>
      <trkpt lat="45.75524" lon="4.83859">
        <ele>166</ele>
        <time>2016-09-15T05:47:30Z</time>
      </trkpt>
      <trkpt lat="45.75533" lon="4.83863">
        <ele>167</ele>
        <time>2016-09-15T05:47:33Z</time>
      </trkpt>
      <trkpt lat="45.75549" lon="4.83882">
        <ele>166</ele>
        <time>2016-09-15T05:47:42Z</time>
      </trkpt>
      <trkpt lat="45.75551" lon="4.83892">
        <ele>165</ele>
        <time>2016-09-15T05:47:45Z</time>
      </trkpt>
      <trkpt lat="45.75555" lon="4.8391">
        <ele>169</ele>
        <time>2016-09-15T05:47:51Z</time>
      </trkpt>
      <trkpt lat="45.75548" lon="4.8393">
        <ele>170</ele>
        <time>2016-09-15T05:48:02Z</time>
      </trkpt>
      <trkpt lat="45.75543" lon="4.83937">
        <ele>172</ele>
        <time>2016-09-15T05:48:07Z</time>
      </trkpt>
      <trkpt lat="45.75541" lon="4.83939">
        <ele>173</ele>
        <time>2016-09-15T05:48:09Z</time>
      </trkpt>
      <trkpt lat="45.75528" lon="4.8394">
        <ele>174</ele>
        <time>2016-09-15T05:48:17Z</time>
      </trkpt>
      <trkpt lat="45.75522" lon="4.83936">
        <ele>171</ele>
        <time>2016-09-15T05:48:21Z</time>
      </trkpt>
      <trkpt lat="45.75507" lon="4.83924">
        <ele>173</ele>
        <time>2016-09-15T05:48:28Z</time>
      </trkpt>
      <trkpt lat="45.75497" lon="4.83919">
        <ele>174</ele>
        <time>2016-09-15T05:48:33Z</time>
      </trkpt>
      <trkpt lat="45.75481" lon="4.83909">
        <ele>175</ele>
        <time>2016-09-15T05:48:39Z</time>
      </trkpt>
      <trkpt lat="45.75467" lon="4.83899">
        <ele>167</ele>
        <time>2016-09-15T05:48:45Z</time>
      </trkpt>
      <trkpt lat="45.75445" lon="4.83888">
        <ele>168</ele>
        <time>2016-09-15T05:48:53Z</time>
      </trkpt>
      <trkpt lat="45.75432" lon="4.83879">
        <ele>171</ele>
        <time>2016-09-15T05:48:58Z</time>
      </trkpt>
      <trkpt lat="45.75419" lon="4.83873">
        <ele>170</ele>
        <time>2016-09-15T05:49:03Z</time>
      </trkpt>
      <trkpt lat="45.7541" lon="4.83865">
        <ele>170</ele>
        <time>2016-09-15T05:49:09Z</time>
      </trkpt>
      <trkpt lat="45.75399" lon="4.83858">
        <ele>168</ele>
        <time>2016-09-15T05:49:15Z</time>
      </trkpt>
      <trkpt lat="45.75386" lon="4.83851">
        <ele>170</ele>
        <time>2016-09-15T05:49:21Z</time>
      </trkpt>
      <trkpt lat="45.75372" lon="4.83845">
        <ele>171</ele>
        <time>2016-09-15T05:49:27Z</time>
      </trkpt>
      <trkpt lat="45.75363" lon="4.83835">
        <ele>175</ele>
        <time>2016-09-15T05:49:33Z</time>
      </trkpt>
      <trkpt lat="45.75349" lon="4.83823">
        <ele>172</ele>
        <time>2016-09-15T05:49:39Z</time>
      </trkpt>
      <trkpt lat="45.75331" lon="4.83811">
        <ele>178</ele>
        <time>2016-09-15T05:49:46Z</time>
      </trkpt>
      <trkpt lat="45.75317" lon="4.83799">
        <ele>172</ele>
        <time>2016-09-15T05:49:52Z</time>
      </trkpt>
      <trkpt lat="45.75303" lon="4.83788">
        <ele>167</ele>
        <time>2016-09-15T05:49:57Z</time>
      </trkpt>
      <trkpt lat="45.75292" lon="4.83779">
        <ele>168</ele>
        <time>2016-09-15T05:50:03Z</time>
      </trkpt>
      <trkpt lat="45.75279" lon="4.83769">
        <ele>164</ele>
        <time>2016-09-15T05:50:09Z</time>
      </trkpt>
      <trkpt lat="45.7527" lon="4.8376">
        <ele>160</ele>
        <time>2016-09-15T05:50:15Z</time>
      </trkpt>
      <trkpt lat="45.75261" lon="4.83749">
        <ele>164</ele>
        <time>2016-09-15T05:50:21Z</time>
      </trkpt>
      <trkpt lat="45.75248" lon="4.83741">
        <ele>162</ele>
        <time>2016-09-15T05:50:27Z</time>
      </trkpt>
      <trkpt lat="45.75232" lon="4.83724">
        <ele>166</ele>
        <time>2016-09-15T05:50:35Z</time>
      </trkpt>
      <trkpt lat="45.75223" lon="4.83719">
        <ele>164</ele>
        <time>2016-09-15T05:50:39Z</time>
      </trkpt>
      <trkpt lat="45.75206" lon="4.83692">
        <ele>159</ele>
        <time>2016-09-15T05:50:50Z</time>
      </trkpt>
      <trkpt lat="45.7521" lon="4.83676">
        <ele>159</ele>
        <time>2016-09-15T05:50:53Z</time>
      </trkpt>
      <trkpt lat="45.75216" lon="4.83663">
        <ele>162</ele>
        <time>2016-09-15T05:50:57Z</time>
      </trkpt>
      <trkpt lat="45.75225" lon="4.83643">
        <ele>162</ele>
        <time>2016-09-15T05:51:04Z</time>
      </trkpt>
      <trkpt lat="45.75236" lon="4.83621">
        <ele>165</ele>
        <time>2016-09-15T05:51:13Z</time>
      </trkpt>
      <trkpt lat="45.75239" lon="4.83615">
        <ele>163</ele>
        <time>2016-09-15T05:51:15Z</time>
      </trkpt>
      <trkpt lat="45.75245" lon="4.83596">
        <ele>168</ele>
        <time>2016-09-15T05:51:21Z</time>
      </trkpt>
      <trkpt lat="45.7525" lon="4.83573">
        <ele>169</ele>
        <time>2016-09-15T05:51:27Z</time>
      </trkpt>
      <trkpt lat="45.7526" lon="4.83539">
        <ele>174</ele>
        <time>2016-09-15T05:51:36Z</time>
      </trkpt>
      <trkpt lat="45.75265" lon="4.8353">
        <ele>174</ele>
        <time>2016-09-15T05:51:39Z</time>
      </trkpt>
      <trkpt lat="45.75275" lon="4.83513">
        <ele>174</ele>
        <time>2016-09-15T05:51:45Z</time>
      </trkpt>
      <trkpt lat="45.75283" lon="4.83494">
        <ele>174</ele>
        <time>2016-09-15T05:51:51Z</time>
      </trkpt>
      <trkpt lat="45.75293" lon="4.8346">
        <ele>177</ele>
        <time>2016-09-15T05:52:02Z</time>
      </trkpt>
      <trkpt lat="45.75294" lon="4.83455">
        <ele>178</ele>
        <time>2016-09-15T05:52:03Z</time>
      </trkpt>
      <trkpt lat="45.753" lon="4.83431">
        <ele>178</ele>
        <time>2016-09-15T05:52:09Z</time>
      </trkpt>
      <trkpt lat="45.75312" lon="4.83414">
        <ele>177</ele>
        <time>2016-09-15T05:52:20Z</time>
      </trkpt>
      <trkpt lat="45.75311" lon="4.83414">
        <ele>176</ele>
        <time>2016-09-15T05:52:21Z</time>
      </trkpt>
      <trkpt lat="45.75311" lon="4.83415">
        <ele>175</ele>
        <time>2016-09-15T05:52:27Z</time>
      </trkpt>
      <trkpt lat="45.75313" lon="4.8341">
        <ele>171</ele>
        <time>2016-09-15T05:52:33Z</time>
      </trkpt>
      <trkpt lat="45.75319" lon="4.83384">
        <ele>170</ele>
        <time>2016-09-15T05:52:39Z</time>
      </trkpt>
      <trkpt lat="45.75331" lon="4.83364">
        <ele>169</ele>
        <time>2016-09-15T05:52:45Z</time>
      </trkpt>
      <trkpt lat="45.75345" lon="4.83349">
        <ele>169</ele>
        <time>2016-09-15T05:52:52Z</time>
      </trkpt>
      <trkpt lat="45.75354" lon="4.83333">
        <ele>169</ele>
        <time>2016-09-15T05:52:57Z</time>
      </trkpt>
      <trkpt lat="45.75396" lon="4.83222">
        <ele>163</ele>
        <time>2016-09-15T05:53:37Z</time>
      </trkpt>
      <trkpt lat="45.75396" lon="4.83223">
        <ele>159</ele>
        <time>2016-09-15T05:53:39Z</time>
      </trkpt>
      <trkpt lat="45.75403" lon="4.83211">
        <ele>159</ele>
        <time>2016-09-15T05:53:45Z</time>
      </trkpt>
      <trkpt lat="45.75436" lon="4.83076">
        <ele>162</ele>
        <time>2016-09-15T05:54:25Z</time>
      </trkpt>
      <trkpt lat="45.75377" lon="4.82953">
        <ele>169</ele>
        <time>2016-09-15T05:55:23Z</time>
      </trkpt>
      <trkpt lat="45.75382" lon="4.82932">
        <ele>177</ele>
        <time>2016-09-15T05:55:29Z</time>
      </trkpt>
    </trkseg>
  </trk>
</gpx>